Time;durP1;ratioP1;P1;durP2;ratioP2;P2;SDS_P1;SDS_P2;PMS_P1;PMS_P2;Temp;Humidity;BMP_temperature;BMP_pressure;BME280_temperature;BME280_humidity;BME280_pressure;Samples;Min_cycle;Max_cycle;Signal;HPM_P1;HPM_P2
2020/12/10 00:02:11;;;;;;;90.68;32.85;;;;;;;6.74;94.99;99274.13;5145272;27;20061;-63
2020/12/10 00:04:36;;;;;;;105.38;36.88;;;;;;;6.63;94.91;99279.59;5144844;27;20023;-64
2020/12/10 00:07:01;;;;;;;113.07;38.45;;;;;;;6.57;96.20;99283.66;5145186;27;20057;-63
2020/12/10 00:09:27;;;;;;;89.38;31.15;;;;;;;6.61;95.96;99279.75;5144785;27;20031;-63
2020/12/10 00:11:52;;;;;;;96.72;28.75;;;;;;;6.68;96.04;99277.34;5144545;27;20046;-63
2020/12/10 00:14:18;;;;;;;86.90;27.63;;;;;;;6.62;95.36;99259.53;5145008;27;20090;-63
2020/12/10 00:16:46;;;;;;;92.03;29.67;;;;;;;6.74;95.44;99245.19;5144938;27;20034;-63
2020/12/10 00:19:12;;;;;;;104.65;34.40;;;;;;;6.69;95.28;99250.91;5144576;27;20023;-63
2020/12/10 00:21:37;;;;;;;84.55;30.73;;;;;;;6.78;94.40;99248.34;5144889;27;20035;-63
2020/12/10 00:24:03;;;;;;;97.35;32.97;;;;;;;6.73;94.33;99256.69;5144600;27;20023;-63
2020/12/10 00:26:28;;;;;;;108.05;31.05;;;;;;;6.89;94.19;99264.75;5144609;27;20039;-63
2020/12/10 00:28:54;;;;;;;93.22;30.50;;;;;;;6.93;94.16;99281.06;5144219;27;20116;-63
2020/12/10 00:31:19;;;;;;;102.70;32.80;;;;;;;6.89;94.26;99291.06;5144688;27;20039;-63
2020/12/10 00:33:45;;;;;;;90.45;29.13;;;;;;;6.96;94.04;99294.75;5144371;27;20254;-64
2020/12/10 00:36:13;;;;;;;94.00;30.52;;;;;;;7.09;93.67;99302.28;5144465;27;20034;-63
2020/12/10 00:38:38;;;;;;;89.60;30.95;;;;;;;7.01;92.96;99312.72;5144331;27;20035;-63
2020/12/10 00:41:04;;;;;;;92.47;30.33;;;;;;;6.92;93.42;99292.56;5144431;27;20044;-63
2020/12/10 00:43:29;;;;;;;101.13;31.70;;;;;;;6.85;93.99;99292.34;5144277;27;20027;-63
2020/12/10 00:45:54;;;;;;;93.05;31.13;;;;;;;7.06;92.93;99278.88;5144281;27;20220;-63
2020/12/10 00:48:20;;;;;;;120.63;36.55;;;;;;;6.96;93.25;99281.59;5144069;27;20086;-63
2020/12/10 00:50:45;;;;;;;127.75;41.10;;;;;;;7.05;92.49;99277.22;5144015;27;20045;-63
2020/12/10 00:53:11;;;;;;;134.55;41.80;;;;;;;7.04;92.60;99283.47;5144037;27;20023;-63
2020/12/10 00:55:36;;;;;;;95.22;34.42;;;;;;;6.99;93.28;99291.81;5144105;27;20035;-63
2020/12/10 00:58:02;;;;;;;92.95;28.95;;;;;;;6.94;93.83;99293.25;5143556;27;20509;-63
2020/12/10 01:00:27;;;;;;;91.28;29.67;;;;;;;6.73;94.27;99283.81;5125623;28;20312;-63
2020/12/10 01:02:53;;;;;;;145.48;39.40;;;;;;;6.70;95.37;99283.28;5143965;28;20027;-63
2020/12/10 01:05:19;;;;;;;125.65;35.03;;;;;;;6.79;94.32;99271.88;5143878;28;20075;-63
2020/12/10 01:07:47;;;;;;;116.40;36.08;;;;;;;6.68;94.83;99264.19;5143946;28;20201;-64
2020/12/10 01:10:12;;;;;;;113.70;33.70;;;;;;;6.87;95.38;99236.91;5144105;28;20050;-64
2020/12/10 01:12:41;;;;;;;101.57;34.35;;;;;;;7.10;92.21;99248.63;5143579;28;20046;-63
2020/12/10 01:15:07;;;;;;;142.13;31.02;;;;;;;6.64;93.84;99247.06;5125400;28;20030;-63
2020/12/10 01:17:32;;;;;;;135.13;33.42;;;;;;;6.72;94.96;99240.06;5144231;28;20313;-63
2020/12/10 01:19:57;;;;;;;128.85;30.85;;;;;;;7.00;94.71;99237.34;5143754;28;20291;-63
2020/12/10 01:22:23;;;;;;;126.45;32.15;;;;;;;6.93;93.98;99233.69;5144282;28;20312;-63
2020/12/10 01:24:48;;;;;;;102.15;29.95;;;;;;;6.97;94.80;99241.13;5143785;28;20223;-63
2020/12/10 01:27:14;;;;;;;112.30;32.10;;;;;;;6.81;95.03;99264.66;5144026;28;20094;-63
2020/12/10 01:29:39;;;;;;;135.75;33.45;;;;;;;6.62;96.32;99268.25;5143858;28;20059;-63
2020/12/10 01:32:04;;;;;;;91.07;30.30;;;;;;;6.92;95.87;99253.91;5144048;28;20232;-63
2020/12/10 01:34:30;;;;;;;117.32;32.17;;;;;;;6.90;94.61;99239.25;5143659;28;20076;-63
2020/12/10 01:36:55;;;;;;;123.22;34.90;;;;;;;6.93;94.78;99241.56;5143933;28;20062;-63
2020/12/10 01:39:21;;;;;;;113.60;32.10;;;;;;;6.58;95.38;99261.63;5143594;28;20054;-63
2020/12/10 01:41:46;;;;;;;138.20;31.10;;;;;;;6.66;96.17;99247.75;5144012;28;20027;-63
2020/12/10 01:44:13;;;;;;;131.25;30.13;;;;;;;6.64;96.23;99258.41;5143503;28;20343;-64
2020/12/10 01:46:41;;;;;;;105.93;30.58;;;;;;;6.71;97.32;99256.84;5143829;28;20094;-63
2020/12/10 01:49:08;;;;;;;133.48;31.15;;;;;;;6.72;96.28;99245.34;5143543;28;20027;-63
2020/12/10 01:51:34;;;;;;;142.18;31.00;;;;;;;6.94;96.27;99227.44;5125185;28;20370;-63
2020/12/10 01:54:00;;;;;;;114.28;30.27;;;;;;;6.97;95.74;99217.44;5143678;28;20020;-63
2020/12/10 01:56:26;;;;;;;97.20;31.42;;;;;;;7.07;95.47;99219.97;5143637;28;20082;-63
2020/12/10 01:58:52;;;;;;;145.68;30.33;;;;;;;7.02;95.35;99204.66;5143124;28;20027;-63
2020/12/10 02:01:18;;;;;;;118.15;32.55;;;;;;;6.98;96.05;99190.13;5143644;28;20049;-63
2020/12/10 02:03:44;;;;;;;128.55;30.60;;;;;;;6.99;94.63;99196.22;5143610;28;20031;-63
2020/12/10 02:06:09;;;;;;;145.23;30.20;;;;;;;6.80;95.75;99210.38;5143598;28;20086;-63
2020/12/10 02:08:40;;;;;;;132.85;30.08;;;;;;;6.76;96.08;99219.56;5143987;27;20320;-64
2020/12/10 02:11:10;;;;;;;133.55;30.50;;;;;;;6.64;97.46;99224.22;5147152;27;20035;-63
2020/12/10 02:13:35;;;;;;;126.72;28.55;;;;;;;6.69;97.60;99240.38;5146995;27;20098;-63
2020/12/10 02:16:01;;;;;;;123.55;29.65;;;;;;;6.81;97.32;99224.38;5147112;27;20039;-63
2020/12/10 02:18:27;;;;;;;92.90;27.25;;;;;;;6.80;96.45;99223.53;5147053;27;20080;-64
2020/12/10 02:20:52;;;;;;;152.65;30.30;;;;;;;6.88;96.77;99226.25;5146976;27;20035;-63
2020/12/10 02:23:18;;;;;;;142.55;27.27;;;;;;;7.10;95.24;99210.94;5146885;27;20335;-63
2020/12/10 02:25:43;;;;;;;106.75;28.02;;;;;;;6.94;95.24;99201.94;5146690;27;20098;-63
2020/12/10 02:28:14;;;;;;;98.38;28.08;;;;;;;6.84;95.36;99217.00;5146566;27;20042;-63
2020/12/10 02:30:41;;;;;;;111.20;31.85;;;;;;;6.90;95.82;99181.34;5146772;27;20039;-63
2020/12/10 02:33:08;;;;;;;162.40;30.35;;;;;;;6.98;96.12;99184.03;5146554;27;20031;-63
2020/12/10 02:35:35;;;;;;;137.45;30.88;;;;;;;7.16;95.08;99194.53;5146625;27;20031;-64
2020/12/10 02:38:02;;;;;;;175.85;30.90;;;;;;;7.09;94.47;99193.50;5146475;27;20053;-63
2020/12/10 02:40:34;;;;;;;175.00;29.45;;;;;;;6.94;95.16;99193.22;5146628;27;20068;-64
2020/12/10 02:43:00;;;;;;;105.78;28.35;;;;;;;6.95;96.26;99190.44;5146417;27;20101;-63
2020/12/10 02:45:26;;;;;;;152.63;31.35;;;;;;;7.08;95.73;99179.50;5146452;27;20031;-63
2020/12/10 02:47:53;;;;;;;215.98;35.83;;;;;;;7.07;95.13;99179.66;5146299;27;20086;-63
2020/12/10 02:50:19;;;;;;;154.82;33.50;;;;;;;7.10;95.56;99179.34;5146233;27;20266;-63
2020/12/10 02:52:44;;;;;;;213.77;35.22;;;;;;;6.96;95.55;99186.00;5146200;27;20049;-64
2020/12/10 02:55:10;;;;;;;158.75;34.08;;;;;;;6.95;96.06;99200.13;5146092;27;20083;-63
2020/12/10 02:57:35;;;;;;;203.70;32.88;;;;;;;6.94;95.79;99191.41;5127941;27;20212;-63
2020/12/10 03:00:04;;;;;;;162.80;30.67;;;;;;;6.93;95.76;99173.16;5146020;27;20079;-63
2020/12/10 03:02:29;;;;;;;112.97;28.40;;;;;;;6.97;95.42;99185.84;5146533;27;20340;-64
2020/12/10 03:04:55;;;;;;;176.32;32.55;;;;;;;6.89;96.00;99200.75;5146260;27;20082;-64
2020/12/10 03:07:20;;;;;;;190.40;34.10;;;;;;;6.97;95.91;99187.66;5146459;27;20046;-64
2020/12/10 03:09:45;;;;;;;126.00;30.20;;;;;;;6.78;96.51;99203.63;5145937;27;20097;-63
2020/12/10 03:12:11;;;;;;;193.23;30.45;;;;;;;6.81;96.82;99208.56;5145793;27;20045;-63
2020/12/10 03:14:37;;;;;;;258.92;32.63;;;;;;;6.98;96.86;99178.78;5145787;27;20027;-64
2020/12/10 03:17:03;;;;;;;212.38;30.95;;;;;;;7.02;96.61;99177.50;5145681;27;20194;-63
2020/12/10 03:19:29;;;;;;;227.32;30.73;;;;;;;7.10;95.33;99188.09;5145756;27;20029;-63
2020/12/10 03:21:54;;;;;;;137.60;29.50;;;;;;;6.98;96.09;99190.13;5146050;27;20019;-63
2020/12/10 03:24:20;;;;;;;153.73;30.20;;;;;;;6.99;96.04;99193.59;5145573;27;20027;-64
2020/12/10 03:26:45;;;;;;;193.77;30.77;;;;;;;6.97;97.04;99200.81;5145760;27;20040;-64
2020/12/10 03:29:11;;;;;;;184.52;28.42;;;;;;;7.07;96.08;99195.47;5145683;27;20079;-64
2020/12/10 03:31:37;;;;;;;170.43;30.02;;;;;;;7.24;95.60;99186.69;5145649;27;20046;-63
2020/12/10 03:34:04;;;;;;;198.77;30.80;;;;;;;6.95;96.46;99168.56;5145474;27;20026;-64
2020/12/10 03:36:50;;;;;;;189.73;31.80;;;;;;;7.04;96.05;99170.28;5145584;27;20044;-63
2020/12/10 03:39:20;;;;;;;126.43;30.27;;;;;;;7.00;96.32;99176.81;5145448;27;20027;-63
2020/12/10 03:41:46;;;;;;;271.35;35.92;;;;;;;7.09;96.77;99168.00;5145541;27;20023;-63
2020/12/10 03:44:12;;;;;;;170.75;32.42;;;;;;;7.20;95.70;99173.00;5145230;27;20022;-63
2020/12/10 03:46:39;;;;;;;154.20;31.70;;;;;;;7.13;95.79;99169.34;5145454;27;20023;-63
2020/12/10 03:49:05;;;;;;;271.05;32.92;;;;;;;7.07;96.18;99166.50;5145103;27;20072;-63
2020/12/10 03:51:31;;;;;;;192.02;34.40;;;;;;;7.32;95.29;99177.06;5145243;27;20027;-63
2020/12/10 03:53:56;;;;;;;204.85;35.33;;;;;;;7.20;95.03;99170.38;5144945;27;20031;-63
2020/12/10 03:56:22;;;;;;;272.85;37.20;;;;;;;7.12;95.78;99165.06;5145255;27;20247;-63
2020/12/10 03:58:48;;;;;;;207.50;33.78;;;;;;;7.22;95.95;99163.16;5144728;27;20058;-64
2020/12/10 04:01:13;;;;;;;203.45;33.72;;;;;;;7.25;95.34;99173.38;5145121;27;20320;-64
2020/12/10 04:03:39;;;;;;;206.68;35.65;;;;;;;7.19;96.48;99183.69;5145005;27;20047;-63
2020/12/10 04:06:04;;;;;;;167.18;32.47;;;;;;;7.22;96.22;99176.31;5145038;27;20041;-63
2020/12/10 04:08:29;;;;;;;203.80;32.03;;;;;;;7.18;95.20;99190.78;5144761;27;20031;-63
2020/12/10 04:10:55;;;;;;;145.18;29.23;;;;;;;7.30;95.20;99196.66;5144554;27;20049;-63
2020/12/10 04:13:20;;;;;;;246.50;32.97;;;;;;;7.36;94.87;99188.94;5144717;27;20030;-63
2020/12/10 04:15:46;;;;;;;288.02;33.70;;;;;;;7.29;94.93;99174.75;5144609;27;20106;-63
2020/12/10 04:18:11;;;;;;;113.60;30.25;;;;;;;7.27;94.50;99170.59;5144866;27;20015;-63
2020/12/10 04:20:37;;;;;;;187.43;32.10;;;;;;;7.37;94.56;99176.59;5144678;27;20077;-64
2020/12/10 04:23:02;;;;;;;254.55;35.42;;;;;;;7.03;95.83;99185.22;5126158;27;20045;-63
2020/12/10 04:25:27;;;;;;;206.30;34.35;;;;;;;7.01;96.81;99176.66;5144422;27;20232;-63
2020/12/10 04:27:53;;;;;;;145.82;29.73;;;;;;;7.07;96.16;99174.41;5125983;27;20314;-64
2020/12/10 04:30:21;;;;;;;125.78;29.63;;;;;;;7.15;96.17;99180.56;5126100;27;20095;-64
2020/12/10 04:32:49;;;;;;;205.52;32.78;;;;;;;7.24;95.95;99186.69;5143784;27;20031;-63
2020/12/10 04:35:15;;;;;;;183.70;32.67;;;;;;;7.28;95.44;99193.31;5144177;27;20023;-64
2020/12/10 04:37:43;;;;;;;104.82;30.83;;;;;;;7.23;96.01;99206.94;5144285;27;20038;-63
2020/12/10 04:40:09;;;;;;;279.80;32.97;;;;;;;7.22;95.08;99196.56;5144195;27;20027;-63
2020/12/10 04:42:36;;;;;;;323.65;35.40;;;;;;;7.24;95.11;99186.69;5126081;27;20033;-63
2020/12/10 04:45:03;;;;;;;180.75;31.58;;;;;;;7.26;96.32;99185.56;5144343;27;20027;-63
2020/12/10 04:47:29;;;;;;;269.35;34.38;;;;;;;7.35;95.61;99168.03;5144522;27;20038;-63
2020/12/10 04:49:57;;;;;;;143.35;28.98;;;;;;;7.39;95.51;99168.56;5144448;27;20023;-64
2020/12/10 04:52:24;;;;;;;164.48;30.15;;;;;;;7.43;95.51;99156.72;5144485;27;20306;-63
2020/12/10 04:54:49;;;;;;;203.38;32.97;;;;;;;7.67;94.17;99170.03;5143883;27;20027;-64
2020/12/10 04:57:17;;;;;;;271.65;31.67;;;;;;;7.60;93.60;99169.81;5144346;27;20031;-63
2020/12/10 04:59:43;;;;;;;220.70;30.10;;;;;;;7.71;93.04;99173.16;5143804;27;20238;-63
2020/12/10 05:02:12;;;;;;;100.78;28.95;;;;;;;7.58;93.16;99168.34;5144409;27;20068;-63
2020/12/10 05:04:40;;;;;;;195.73;31.95;;;;;;;7.49;93.73;99166.63;5143889;28;20027;-64
2020/12/10 05:07:06;;;;;;;200.63;28.92;;;;;;;7.50;93.99;99184.09;5144322;28;20250;-63
2020/12/10 05:09:32;;;;;;;242.70;32.85;;;;;;;7.41;94.52;99174.50;5143790;28;20031;-64
2020/12/10 05:11:57;;;;;;;185.05;29.83;;;;;;;7.42;94.47;99171.69;5143611;28;20046;-63
2020/12/10 05:14:23;;;;;;;197.85;33.15;;;;;;;7.45;94.73;99162.66;5143871;28;20087;-64
2020/12/10 05:17:11;;;;;;;210.18;40.50;;;;;;;7.55;94.20;99174.75;5144056;28;20039;-63
2020/12/10 05:19:36;;;;;;;191.15;52.70;;;;;;;7.43;94.42;99172.53;5143786;28;20307;-63
2020/12/10 05:22:04;;;;;;;226.82;54.30;;;;;;;7.56;94.02;99176.38;5144205;28;20027;-63
2020/12/10 05:24:30;;;;;;;169.70;49.30;;;;;;;7.52;94.67;99179.50;5143654;28;20027;-64
2020/12/10 05:27:22;;;;;;;149.13;38.70;;;;;;;7.45;94.06;99175.84;5143814;28;20039;-63
2020/12/10 05:29:49;;;;;;;149.73;46.80;;;;;;;7.51;94.21;99168.13;5143327;28;20060;-63
2020/12/10 05:32:42;;;;;;;147.98;49.92;;;;;;;7.38;94.37;99177.44;5144040;28;20124;-64
2020/12/10 05:35:13;;;;;;;159.15;41.10;;;;;;;7.47;94.28;99177.34;5140146;28;20039;-63
2020/12/10 05:37:39;;;;;;;145.77;35.00;;;;;;;7.56;94.05;99186.94;5125444;28;20027;-63
2020/12/10 05:40:04;;;;;;;260.40;38.63;;;;;;;7.48;94.78;99188.69;5125228;28;20327;-64
2020/12/10 05:42:51;;;;;;;192.38;33.05;;;;;;;7.55;94.88;99192.34;5144003;27;20039;-63
2020/12/10 05:45:18;;;;;;;129.80;30.98;;;;;;;7.54;93.13;99181.00;5146871;27;20064;-64
2020/12/10 05:47:55;;;;;;;207.68;34.45;;;;;;;7.50;94.75;99181.47;5147548;27;20035;-63
2020/12/10 05:50:26;;;;;;;242.15;33.95;;;;;;;7.70;92.84;99182.88;5147449;27;20038;-63
2020/12/10 05:53:08;;;;;;;247.40;31.50;;;;;;;7.61;92.57;99182.00;5147371;27;20034;-63
2020/12/10 05:55:35;;;;;;;153.15;30.17;;;;;;;7.28;93.73;99185.41;5147393;27;20047;-63
2020/12/10 05:58:03;;;;;;;233.57;33.17;;;;;;;7.28;95.40;99195.94;5147088;27;20021;-63
2020/12/10 06:00:28;;;;;;;133.73;29.98;;;;;;;7.30;96.21;99191.38;5147359;27;20030;-63
2020/12/10 06:02:55;;;;;;;153.95;30.33;;;;;;;7.38;96.49;99190.59;5128842;27;20207;-63
2020/12/10 06:05:23;;;;;;;181.20;35.33;;;;;;;7.40;96.18;99200.00;5147301;27;20023;-64
2020/12/10 06:08:02;;;;;;;242.73;39.70;;;;;;;7.38;96.65;99212.50;5147176;27;20039;-63
2020/12/10 06:10:28;;;;;;;208.63;40.15;;;;;;;7.39;96.12;99214.16;5147234;27;20122;-64
2020/12/10 06:12:54;;;;;;;258.27;49.55;;;;;;;7.35;96.18;99211.00;5146821;27;20034;-64
2020/12/10 06:15:27;;;;;;;290.33;52.13;;;;;;;7.40;96.97;99213.19;5146958;27;20031;-63
2020/12/10 06:18:18;;;;;;;272.13;42.50;;;;;;;7.50;96.38;99223.59;5147013;27;20068;-64
2020/12/10 06:20:45;;;;;;;236.00;47.55;;;;;;;7.43;96.57;99220.75;5142910;27;20106;-64
2020/12/10 06:23:27;;;;;;;236.85;42.92;;;;;;;7.40;96.33;99210.53;5146823;27;20072;-63
2020/12/10 06:25:54;;;;;;;340.45;58.95;;;;;;;7.31;96.12;99204.41;5146737;27;20302;-63
2020/12/10 06:28:21;;;;;;;180.80;44.80;;;;;;;7.42;96.09;99195.41;5146628;27;20324;-64
2020/12/10 06:31:02;;;;;;;225.38;55.78;;;;;;;7.44;95.78;99206.63;5146720;27;20119;-63
2020/12/10 06:33:54;;;;;;;314.77;52.10;;;;;;;7.43;96.46;99204.13;5146702;27;20023;-63
2020/12/10 06:36:19;;;;;;;281.55;50.58;;;;;;;7.45;95.93;99192.47;5142827;27;20092;-64
2020/12/10 06:38:45;;;;;;;270.83;52.88;;;;;;;7.37;96.02;99200.31;5146513;27;20027;-63
2020/12/10 06:41:11;;;;;;;232.30;46.78;;;;;;;7.32;96.85;99202.59;5146685;27;20035;-64
2020/12/10 06:43:37;;;;;;;352.17;50.58;;;;;;;7.46;96.35;99194.13;5146479;27;20279;-63
2020/12/10 06:46:03;;;;;;;360.45;48.15;;;;;;;7.49;96.24;99193.81;5146677;27;20031;-63
2020/12/10 06:48:46;;;;;;;379.38;46.70;;;;;;;7.52;96.42;99205.84;5146439;27;20027;-63
2020/12/10 06:51:19;;;;;;;309.27;45.30;;;;;;;7.49;96.28;99206.16;5146539;27;20224;-63
2020/12/10 06:54:00;;;;;;;288.10;44.40;;;;;;;7.37;96.97;99218.75;5146279;27;20224;-63
2020/12/10 06:56:26;;;;;;;383.90;59.55;;;;;;;7.49;96.54;99225.41;5146148;27;20273;-63
2020/12/10 06:58:55;;;;;;;379.60;60.63;;;;;;;7.54;96.17;99228.41;5146025;27;20027;-63
2020/12/10 07:01:21;;;;;;;281.23;50.40;;;;;;;7.57;96.24;99216.72;5146426;27;20102;-64
2020/12/10 07:03:49;;;;;;;311.75;44.75;;;;;;;7.59;96.26;99233.22;5145980;27;20034;-64
2020/12/10 07:06:18;;;;;;;332.02;48.97;;;;;;;7.75;96.01;99224.56;5146236;27;20031;-63
2020/12/10 07:09:05;;;;;;;383.33;40.85;;;;;;;7.81;94.63;99216.88;5145928;27;20029;-63
2020/12/10 07:11:42;;;;;;;206.98;38.30;;;;;;;7.74;95.01;99209.75;5146028;27;20043;-64
2020/12/10 07:14:26;;;;;;;353.85;39.92;;;;;;;7.89;95.18;99193.19;5145916;27;20027;-64
2020/12/10 07:16:53;;;;;;;380.23;43.47;;;;;;;7.90;95.18;99188.72;5145803;27;20041;-63
2020/12/10 07:19:20;;;;;;;180.30;42.50;;;;;;;7.89;94.79;99202.91;5145713;27;20205;-63
2020/12/10 07:21:46;;;;;;;391.60;44.20;;;;;;;7.70;95.03;99203.97;5146024;27;20055;-64
2020/12/10 07:24:11;;;;;;;346.73;45.95;;;;;;;7.72;95.55;99199.38;5145620;27;20050;-63
2020/12/10 07:26:38;;;;;;;247.65;42.65;;;;;;;7.84;94.82;99198.09;5127108;27;20064;-64
2020/12/10 07:29:04;;;;;;;266.48;50.65;;;;;;;7.64;96.12;99202.78;5145425;27;20034;-63
2020/12/10 07:31:29;;;;;;;344.33;52.80;;;;;;;7.74;95.58;99210.56;5145743;27;20031;-63
2020/12/10 07:33:58;;;;;;;357.50;59.47;;;;;;;7.85;95.79;99217.38;5145484;27;20023;-63
2020/12/10 07:36:26;;;;;;;280.10;56.03;;;;;;;8.02;95.21;99213.84;5145652;27;20068;-64
2020/12/10 07:38:51;;;;;;;203.73;42.55;;;;;;;7.91;95.18;99204.41;5145276;27;20308;-63
2020/12/10 07:41:16;;;;;;;184.13;40.97;;;;;;;7.76;95.96;99207.78;5145589;27;20051;-63
2020/12/10 07:43:50;;;;;;;260.30;47.60;;;;;;;7.91;96.16;99203.56;5145275;27;20056;-63
2020/12/10 07:46:16;;;;;;;220.60;44.70;;;;;;;8.03;95.48;99210.22;5127042;27;20114;-63
2020/12/10 07:48:43;;;;;;;301.30;47.63;;;;;;;8.09;94.97;99199.03;5145170;27;20034;-64
2020/12/10 07:51:17;;;;;;;227.90;46.75;;;;;;;7.96;95.35;99210.03;5145248;27;20046;-63
2020/12/10 07:53:42;;;;;;;199.68;47.65;;;;;;;7.95;95.35;99204.91;5144956;27;20027;-63
2020/12/10 07:56:11;;;;;;;140.98;41.53;;;;;;;8.13;94.98;99196.91;5145159;27;20055;-63
2020/12/10 07:58:47;;;;;;;159.65;44.17;;;;;;;7.99;95.46;99193.06;5144775;27;20082;-63
2020/12/10 08:01:13;;;;;;;166.70;43.35;;;;;;;7.96;95.96;99194.19;5145265;27;20045;-63
2020/12/10 08:03:51;;;;;;;181.10;47.55;;;;;;;8.14;95.72;99202.00;5144834;27;20035;-64
2020/12/10 08:06:17;;;;;;;167.63;45.53;;;;;;;8.26;95.19;99208.66;5144388;27;20094;-64
2020/12/10 08:08:58;;;;;;;165.43;42.70;;;;;;;8.29;95.40;99210.97;5144748;27;20031;-63
2020/12/10 08:11:24;;;;;;;162.73;44.70;;;;;;;8.30;95.13;99207.34;5144682;27;20088;-63
2020/12/10 08:13:52;;;;;;;193.88;45.13;;;;;;;8.43;94.23;99195.56;5144699;27;20050;-63
2020/12/10 08:16:17;;;;;;;151.13;40.97;;;;;;;8.41;94.48;99206.28;5144568;27;20045;-63
2020/12/10 08:18:42;;;;;;;160.15;44.38;;;;;;;8.35;94.93;99201.66;5144602;27;20031;-64
2020/12/10 08:21:08;;;;;;;160.13;44.85;;;;;;;8.44;94.77;99190.13;5144699;27;20033;-63
2020/12/10 08:23:45;;;;;;;172.52;49.33;;;;;;;8.31;94.91;99173.88;5144546;27;20027;-63
2020/12/10 08:26:13;;;;;;;161.55;49.85;;;;;;;8.42;94.70;99188.63;5144591;27;20034;-64
2020/12/10 08:28:38;;;;;;;159.25;44.83;;;;;;;8.48;95.05;99193.25;5144140;27;20064;-64
2020/12/10 08:31:05;;;;;;;142.23;41.75;;;;;;;8.37;95.55;99175.09;5144485;27;20035;-63
2020/12/10 08:33:37;;;;;;;136.20;42.13;;;;;;;8.37;95.82;99177.75;5144267;27;20019;-64
2020/12/10 08:36:04;;;;;;;122.53;40.00;;;;;;;8.42;96.06;99181.53;5144448;27;20042;-64
2020/12/10 08:38:29;;;;;;;132.13;43.50;;;;;;;8.41;95.96;99190.44;5144506;27;20051;-63
2020/12/10 08:40:59;;;;;;;139.73;43.83;;;;;;;8.46;95.88;99198.69;5144506;27;20477;-64
2020/12/10 08:43:25;;;;;;;128.73;42.40;;;;;;;8.23;96.19;99202.88;5126059;27;20103;-64
2020/12/10 08:45:51;;;;;;;128.98;43.30;;;;;;;8.24;96.54;99191.31;5125738;28;20027;-64
2020/12/10 08:48:29;;;;;;;135.88;46.15;;;;;;;8.39;95.74;99192.41;5144336;27;20031;-63
2020/12/10 08:51:00;;;;;;;138.77;43.33;;;;;;;8.37;96.20;99181.19;5144282;27;20046;-64
2020/12/10 08:53:26;;;;;;;123.10;43.17;;;;;;;8.50;95.12;99170.19;5144249;27;20213;-63
2020/12/10 08:55:54;;;;;;;130.32;45.35;;;;;;;8.51;95.38;99180.56;5125570;28;20023;-64
2020/12/10 08:58:24;;;;;;;126.30;43.15;;;;;;;8.57;95.33;99192.28;5144110;27;20082;-64
2020/12/10 09:00:51;;;;;;;114.43;41.85;;;;;;;8.68;94.16;99188.50;5143924;27;20051;-64
2020/12/10 09:03:17;;;;;;;100.70;34.75;;;;;;;8.53;94.50;99198.88;5143919;27;20023;-63
2020/12/10 09:05:44;;;;;;;116.30;40.53;;;;;;;8.50;95.15;99196.56;5143823;27;20046;-63
2020/12/10 09:08:09;;;;;;;125.07;46.28;;;;;;;8.48;95.25;99203.81;5143884;28;20111;-64
2020/12/10 09:10:35;;;;;;;124.53;45.92;;;;;;;8.58;94.94;99193.94;5144005;28;20027;-63
2020/12/10 09:13:01;;;;;;;103.63;41.90;;;;;;;8.51;95.26;99191.13;5143589;28;20038;-63
2020/12/10 09:15:28;;;;;;;115.18;42.78;;;;;;;8.52;95.76;99192.78;5125565;28;20266;-64
2020/12/10 09:17:53;;;;;;;116.53;43.38;;;;;;;8.48;95.39;99180.91;5126631;27;20055;-64
2020/12/10 09:20:20;;;;;;;190.80;62.00;;;;;;;8.46;95.20;99158.31;5148070;27;20023;-64
2020/12/10 09:22:45;;;;;;;181.25;58.50;;;;;;;8.43;95.14;99162.09;5148262;27;20305;-64
2020/12/10 09:25:11;;;;;;;117.65;44.83;;;;;;;8.52;95.92;99176.94;5147914;27;20071;-63
2020/12/10 09:27:37;;;;;;;104.15;39.28;;;;;;;8.50;95.61;99171.00;5146867;27;20023;-63
2020/12/10 09:30:05;;;;;;;105.13;39.33;;;;;;;8.54;95.66;99166.22;5146745;27;20068;-63
2020/12/10 09:32:35;;;;;;;110.40;42.95;;;;;;;8.57;95.21;99173.81;5148213;27;20220;-63
2020/12/10 09:35:09;;;;;;;93.35;39.22;;;;;;;8.63;95.31;99162.59;5147930;27;20038;-63
2020/12/10 09:37:35;;;;;;;105.07;40.47;;;;;;;8.58;95.38;99171.00;5148267;27;20027;-63
2020/12/10 09:40:02;;;;;;;104.80;42.83;;;;;;;8.59;95.51;99169.19;5147617;27;20030;-64
2020/12/10 09:42:28;;;;;;;99.80;41.00;;;;;;;8.59;95.12;99156.81;5148014;27;20098;-64
2020/12/10 09:44:53;;;;;;;197.02;67.10;;;;;;;8.68;94.14;99148.91;5147403;27;20034;-63
2020/12/10 09:47:19;;;;;;;135.25;50.78;;;;;;;8.60;94.68;99157.66;5147398;27;20038;-63
2020/12/10 09:49:44;;;;;;;114.45;47.20;;;;;;;8.45;94.63;99144.28;5147439;27;20090;-63
2020/12/10 09:52:12;;;;;;;113.97;46.40;;;;;;;8.42;95.28;99146.41;5147740;27;20232;-63
2020/12/10 09:59:54;;;;;;;96.93;43.53;;;;;;;8.52;95.01;99153.19;5147621;27;20050;-63
2020/12/10 10:02:19;;;;;;;113.35;41.47;;;;;;;8.41;96.10;99164.06;5147594;27;20062;-63
2020/12/10 10:04:45;;;;;;;96.25;40.55;;;;;;;8.48;96.03;99158.97;5147197;27;20031;-63
2020/12/10 10:07:10;;;;;;;106.07;43.60;;;;;;;8.59;95.80;99156.81;5147452;27;20064;-63
2020/12/10 10:09:37;;;;;;;105.13;41.95;;;;;;;8.58;95.81;99165.72;5147052;27;20347;-63
2020/12/10 10:12:04;;;;;;;98.63;43.50;;;;;;;8.72;95.79;99158.97;5146911;27;20043;-63
2020/12/10 10:14:31;;;;;;;102.28;44.83;;;;;;;8.72;94.87;99152.88;5146894;27;20333;-63
2020/12/10 10:16:57;;;;;;;97.00;45.15;;;;;;;8.77;95.47;99150.56;5147083;27;20060;-63
2020/12/10 10:19:22;;;;;;;107.22;45.78;;;;;;;8.80;95.30;99140.50;5146880;27;20031;-63
2020/12/10 10:21:47;;;;;;;96.90;43.97;;;;;;;8.83;94.95;99142.81;5147129;27;20102;-63
2020/12/10 10:24:13;;;;;;;89.00;41.13;;;;;;;8.81;94.78;99139.50;5146787;27;20073;-63
2020/12/10 10:26:38;;;;;;;113.68;47.63;;;;;;;8.83;94.67;99129.63;5146420;27;20102;-63
2020/12/10 10:29:07;;;;;;;101.68;44.05;;;;;;;8.76;94.98;99112.78;5145515;27;20035;-63
2020/12/10 10:31:33;;;;;;;97.70;42.50;;;;;;;8.85;94.51;99117.06;5146012;27;20467;-63
2020/12/10 10:33:58;;;;;;;166.82;60.88;;;;;;;8.93;94.51;99111.78;5146829;27;20023;-63
2020/12/10 10:36:23;;;;;;;159.25;55.67;;;;;;;8.98;94.03;99118.38;5146752;27;20046;-63
2020/12/10 10:38:49;;;;;;;101.80;41.63;;;;;;;9.05;94.10;99112.25;5146527;27;20072;-63
2020/12/10 10:41:15;;;;;;;95.25;39.92;;;;;;;9.02;94.15;99111.78;5146685;27;20039;-63
2020/12/10 10:43:40;;;;;;;91.65;37.60;;;;;;;9.03;94.39;99110.78;5146352;27;20038;-64
2020/12/10 10:46:06;;;;;;;102.97;38.70;;;;;;;9.14;94.16;99113.91;5146433;27;20243;-63
2020/12/10 10:48:31;;;;;;;94.65;39.67;;;;;;;9.13;93.44;99108.78;5146139;27;20023;-63
2020/12/10 10:50:57;;;;;;;102.30;40.83;;;;;;;9.16;93.62;99106.63;5146578;27;20035;-63
2020/12/10 10:53:23;;;;;;;84.55;37.92;;;;;;;9.02;93.57;99102.03;5146197;27;20117;-63
2020/12/10 10:55:49;;;;;;;84.93;35.28;;;;;;;9.13;93.48;99096.41;5127756;27;20023;-64
2020/12/10 10:58:14;;;;;;;89.88;36.85;;;;;;;9.20;93.91;99083.34;5145973;27;20015;-63
2020/12/10 11:00:40;;;;;;;86.88;34.15;;;;;;;9.39;93.48;99084.81;5146024;27;20037;-63
2020/12/10 11:03:05;;;;;;;115.85;68.68;;;;;;;9.20;94.08;99088.63;5145833;27;20027;-63
2020/12/10 11:05:31;;;;;;;92.40;42.80;;;;;;;9.17;94.25;99076.59;5146067;27;20031;-63
2020/12/10 11:07:59;;;;;;;80.47;36.50;;;;;;;9.26;94.25;99087.94;5145963;27;20031;-64
2020/12/10 11:10:24;;;;;;;87.03;36.60;;;;;;;9.16;94.65;99087.31;5145947;27;20027;-63
2020/12/10 11:12:50;;;;;;;88.70;34.47;;;;;;;9.03;94.86;99081.72;5145509;27;20057;-63
2020/12/10 11:15:17;;;;;;;111.00;36.45;;;;;;;9.05;95.41;99069.19;5145645;27;20328;-63
2020/12/10 11:17:42;;;;;;;237.27;59.42;;;;;;;9.08;96.11;99079.41;5145696;27;20034;-63
2020/12/10 11:20:07;;;;;;;362.95;83.53;;;;;;;9.18;95.48;99086.16;5127451;27;20341;-63
2020/12/10 11:22:35;;;;;;;173.45;48.58;;;;;;;9.25;95.20;99088.94;5146023;27;20098;-64
2020/12/10 11:25:01;;;;;;;95.55;34.20;;;;;;;9.17;94.89;99081.03;5145487;27;20034;-63
2020/12/10 11:27:30;;;;;;;82.78;33.80;;;;;;;9.21;94.60;99085.00;5145942;27;20323;-63